sensor_id;sensor_type;location;lat;lon;timestamp;P1;durP1;ratioP1;P2;durP2;ratioP2
55212;SDS011;41083;52.932;6.674;2023-07-29T00:01:08;5.95;;;2.90;;
55212;SDS011;41083;52.932;6.674;2023-07-29T00:03:33;7.22;;;3.70;;
55212;SDS011;41083;52.932;6.674;2023-07-29T00:05:59;6.38;;;3.50;;
55212;SDS011;41083;52.932;6.674;2023-07-29T00:08:25;7.93;;;3.90;;
55212;SDS011;41083;52.932;6.674;2023-07-29T00:10:50;6.40;;;3.22;;
55212;SDS011;41083;52.932;6.674;2023-07-29T00:13:16;8.98;;;3.78;;
55212;SDS011;41083;52.932;6.674;2023-07-29T00:15:42;7.88;;;3.58;;
55212;SDS011;41083;52.932;6.674;2023-07-29T00:18:07;8.35;;;3.17;;
55212;SDS011;41083;52.932;6.674;2023-07-29T00:20:33;6.50;;;3.20;;
55212;SDS011;41083;52.932;6.674;2023-07-29T00:22:59;6.32;;;3.65;;
55212;SDS011;41083;52.932;6.674;2023-07-29T00:25:24;6.72;;;2.92;;
55212;SDS011;41083;52.932;6.674;2023-07-29T00:27:50;7.70;;;3.38;;
55212;SDS011;41083;52.932;6.674;2023-07-29T00:30:16;6.75;;;3.53;;
55212;SDS011;41083;52.932;6.674;2023-07-29T00:32:41;8.15;;;3.55;;
55212;SDS011;41083;52.932;6.674;2023-07-29T00:35:07;8.27;;;3.63;;
55212;SDS011;41083;52.932;6.674;2023-07-29T00:37:33;7.72;;;2.88;;
55212;SDS011;41083;52.932;6.674;2023-07-29T00:39:58;8.10;;;3.28;;
55212;SDS011;41083;52.932;6.674;2023-07-29T00:42:24;8.48;;;3.33;;
55212;SDS011;41083;52.932;6.674;2023-07-29T00:44:50;8.40;;;3.08;;
55212;SDS011;41083;52.932;6.674;2023-07-29T00:47:16;6.20;;;3.20;;
55212;SDS011;41083;52.932;6.674;2023-07-29T00:49:45;8.98;;;4.05;;
55212;SDS011;41083;52.932;6.674;2023-07-29T00:52:11;8.65;;;3.80;;
55212;SDS011;41083;52.932;6.674;2023-07-29T00:54:38;6.15;;;3.30;;
55212;SDS011;41083;52.932;6.674;2023-07-29T00:57:04;5.43;;;3.03;;
55212;SDS011;41083;52.932;6.674;2023-07-29T00:59:32;5.47;;;2.88;;
55212;SDS011;41083;52.932;6.674;2023-07-29T01:01:59;7.07;;;3.25;;
55212;SDS011;41083;52.932;6.674;2023-07-29T01:04:25;6.95;;;3.10;;
55212;SDS011;41083;52.932;6.674;2023-07-29T01:09:55;5.97;;;3.05;;
55212;SDS011;41083;52.932;6.674;2023-07-29T01:12:36;6.97;;;3.10;;
55212;SDS011;41083;52.932;6.674;2023-07-29T01:18:05;7.80;;;2.80;;
55212;SDS011;41083;52.932;6.674;2023-07-29T01:20:33;7.38;;;3.30;;
55212;SDS011;41083;52.932;6.674;2023-07-29T01:23:04;8.07;;;3.70;;
55212;SDS011;41083;52.932;6.674;2023-07-29T01:25:29;8.48;;;3.40;;
55212;SDS011;41083;52.932;6.674;2023-07-29T01:27:55;5.93;;;2.53;;
55212;SDS011;41083;52.932;6.674;2023-07-29T01:30:22;7.30;;;3.50;;
55212;SDS011;41083;52.932;6.674;2023-07-29T01:33:03;9.52;;;3.80;;
55212;SDS011;41083;52.932;6.674;2023-07-29T01:35:47;7.38;;;3.55;;
55212;SDS011;41083;52.932;6.674;2023-07-29T01:38:21;8.77;;;3.97;;
55212;SDS011;41083;52.932;6.674;2023-07-29T01:40:56;5.97;;;2.92;;
55212;SDS011;41083;52.932;6.674;2023-07-29T01:43:23;7.90;;;3.20;;
55212;SDS011;41083;52.932;6.674;2023-07-29T01:45:50;5.93;;;2.80;;
55212;SDS011;41083;52.932;6.674;2023-07-29T01:48:16;7.13;;;3.28;;
55212;SDS011;41083;52.932;6.674;2023-07-29T01:50:42;10.63;;;2.83;;
55212;SDS011;41083;52.932;6.674;2023-07-29T01:53:08;8.07;;;2.97;;
55212;SDS011;41083;52.932;6.674;2023-07-29T01:55:33;7.18;;;3.42;;
55212;SDS011;41083;52.932;6.674;2023-07-29T01:57:59;7.57;;;3.05;;
55212;SDS011;41083;52.932;6.674;2023-07-29T02:00:24;6.78;;;3.05;;
55212;SDS011;41083;52.932;6.674;2023-07-29T02:02:50;9.90;;;3.20;;
55212;SDS011;41083;52.932;6.674;2023-07-29T02:05:16;6.40;;;2.60;;
55212;SDS011;41083;52.932;6.674;2023-07-29T02:07:41;6.68;;;3.08;;
55212;SDS011;41083;52.932;6.674;2023-07-29T02:10:07;6.10;;;2.92;;
55212;SDS011;41083;52.932;6.674;2023-07-29T02:12:33;7.53;;;2.85;;
55212;SDS011;41083;52.932;6.674;2023-07-29T02:14:59;9.18;;;3.33;;
55212;SDS011;41083;52.932;6.674;2023-07-29T02:17:24;7.07;;;2.63;;
55212;SDS011;41083;52.932;6.674;2023-07-29T02:19:51;8.15;;;3.13;;
55212;SDS011;41083;52.932;6.674;2023-07-29T02:22:17;7.97;;;2.92;;
55212;SDS011;41083;52.932;6.674;2023-07-29T02:24:43;9.10;;;3.08;;
55212;SDS011;41083;52.932;6.674;2023-07-29T02:27:09;5.57;;;2.70;;
55212;SDS011;41083;52.932;6.674;2023-07-29T02:29:35;5.07;;;2.33;;
55212;SDS011;41083;52.932;6.674;2023-07-29T02:32:01;6.93;;;3.47;;
55212;SDS011;41083;52.932;6.674;2023-07-29T02:34:28;6.93;;;2.55;;
55212;SDS011;41083;52.932;6.674;2023-07-29T02:36:54;4.35;;;2.20;;
55212;SDS011;41083;52.932;6.674;2023-07-29T02:39:19;6.72;;;2.90;;
55212;SDS011;41083;52.932;6.674;2023-07-29T02:41:45;5.30;;;2.50;;
55212;SDS011;41083;52.932;6.674;2023-07-29T02:44:10;6.28;;;2.60;;
55212;SDS011;41083;52.932;6.674;2023-07-29T02:46:36;5.78;;;2.38;;
55212;SDS011;41083;52.932;6.674;2023-07-29T02:49:02;5.13;;;2.50;;
55212;SDS011;41083;52.932;6.674;2023-07-29T02:51:29;6.47;;;2.45;;
55212;SDS011;41083;52.932;6.674;2023-07-29T02:53:55;7.40;;;2.72;;
55212;SDS011;41083;52.932;6.674;2023-07-29T02:56:20;5.15;;;2.50;;
55212;SDS011;41083;52.932;6.674;2023-07-29T02:58:46;4.90;;;2.53;;
55212;SDS011;41083;52.932;6.674;2023-07-29T03:01:11;7.45;;;2.45;;
55212;SDS011;41083;52.932;6.674;2023-07-29T03:03:37;5.55;;;2.60;;
55212;SDS011;41083;52.932;6.674;2023-07-29T03:06:06;6.20;;;2.92;;
55212;SDS011;41083;52.932;6.674;2023-07-29T03:08:33;5.53;;;2.50;;
55212;SDS011;41083;52.932;6.674;2023-07-29T03:11:04;6.07;;;2.25;;
55212;SDS011;41083;52.932;6.674;2023-07-29T03:13:40;4.93;;;2.20;;
55212;SDS011;41083;52.932;6.674;2023-07-29T03:16:10;7.30;;;2.13;;
55212;SDS011;41083;52.932;6.674;2023-07-29T03:18:37;4.18;;;2.08;;
55212;SDS011;41083;52.932;6.674;2023-07-29T03:21:03;5.05;;;2.13;;
55212;SDS011;41083;52.932;6.674;2023-07-29T03:23:29;6.43;;;1.90;;
55212;SDS011;41083;52.932;6.674;2023-07-29T03:25:55;4.45;;;2.22;;
55212;SDS011;41083;52.932;6.674;2023-07-29T03:28:23;4.78;;;2.45;;
55212;SDS011;41083;52.932;6.674;2023-07-29T03:30:54;4.50;;;2.00;;
55212;SDS011;41083;52.932;6.674;2023-07-29T03:33:23;4.93;;;2.42;;
55212;SDS011;41083;52.932;6.674;2023-07-29T03:35:50;4.97;;;1.83;;
55212;SDS011;41083;52.932;6.674;2023-07-29T03:38:16;5.22;;;2.25;;
55212;SDS011;41083;52.932;6.674;2023-07-29T03:40:41;5.30;;;1.80;;
55212;SDS011;41083;52.932;6.674;2023-07-29T03:43:08;7.20;;;2.35;;
55212;SDS011;41083;52.932;6.674;2023-07-29T03:45:34;4.18;;;2.17;;
55212;SDS011;41083;52.932;6.674;2023-07-29T03:48:00;3.92;;;1.83;;
55212;SDS011;41083;52.932;6.674;2023-07-29T03:50:26;5.43;;;2.70;;
55212;SDS011;41083;52.932;6.674;2023-07-29T03:52:53;4.32;;;1.88;;
55212;SDS011;41083;52.932;6.674;2023-07-29T03:55:19;5.65;;;2.13;;
55212;SDS011;41083;52.932;6.674;2023-07-29T03:57:45;4.95;;;2.03;;
55212;SDS011;41083;52.932;6.674;2023-07-29T04:00:11;7.18;;;2.22;;
55212;SDS011;41083;52.932;6.674;2023-07-29T04:02:37;5.47;;;1.77;;
55212;SDS011;41083;52.932;6.674;2023-07-29T04:05:03;5.82;;;2.00;;
55212;SDS011;41083;52.932;6.674;2023-07-29T04:07:29;4.65;;;2.00;;
55212;SDS011;41083;52.932;6.674;2023-07-29T04:09:55;3.85;;;2.17;;
55212;SDS011;41083;52.932;6.674;2023-07-29T04:12:21;3.60;;;1.85;;
55212;SDS011;41083;52.932;6.674;2023-07-29T04:14:47;3.97;;;1.65;;
55212;SDS011;41083;52.932;6.674;2023-07-29T04:17:13;4.25;;;1.88;;
55212;SDS011;41083;52.932;6.674;2023-07-29T04:19:41;5.35;;;2.10;;
55212;SDS011;41083;52.932;6.674;2023-07-29T04:22:07;3.78;;;1.70;;
55212;SDS011;41083;52.932;6.674;2023-07-29T04:24:32;3.35;;;1.88;;
55212;SDS011;41083;52.932;6.674;2023-07-29T04:26:58;4.10;;;1.60;;
55212;SDS011;41083;52.932;6.674;2023-07-29T04:29:23;4.25;;;1.63;;
55212;SDS011;41083;52.932;6.674;2023-07-29T04:31:49;3.38;;;1.67;;
55212;SDS011;41083;52.932;6.674;2023-07-29T04:34:15;4.15;;;1.70;;
55212;SDS011;41083;52.932;6.674;2023-07-29T04:36:41;5.60;;;1.98;;
55212;SDS011;41083;52.932;6.674;2023-07-29T04:39:07;4.28;;;1.75;;
55212;SDS011;41083;52.932;6.674;2023-07-29T04:41:33;3.20;;;1.70;;
55212;SDS011;41083;52.932;6.674;2023-07-29T04:43:58;4.45;;;1.42;;
55212;SDS011;41083;52.932;6.674;2023-07-29T04:46:24;3.42;;;1.48;;
55212;SDS011;41083;52.932;6.674;2023-07-29T04:48:49;6.50;;;1.83;;
55212;SDS011;41083;52.932;6.674;2023-07-29T04:51:15;4.32;;;1.27;;
55212;SDS011;41083;52.932;6.674;2023-07-29T04:53:40;3.65;;;1.27;;
55212;SDS011;41083;52.932;6.674;2023-07-29T04:56:06;4.03;;;1.33;;
55212;SDS011;41083;52.932;6.674;2023-07-29T04:58:32;3.92;;;1.77;;
55212;SDS011;41083;52.932;6.674;2023-07-29T05:01:00;2.67;;;1.33;;
55212;SDS011;41083;52.932;6.674;2023-07-29T05:03:26;6.05;;;2.05;;
55212;SDS011;41083;52.932;6.674;2023-07-29T05:05:52;2.78;;;1.10;;
55212;SDS011;41083;52.932;6.674;2023-07-29T05:08:22;4.57;;;1.45;;
55212;SDS011;41083;52.932;6.674;2023-07-29T05:10:51;3.40;;;1.45;;
55212;SDS011;41083;52.932;6.674;2023-07-29T05:13:17;2.78;;;1.20;;
55212;SDS011;41083;52.932;6.674;2023-07-29T05:15:44;3.30;;;1.27;;
55212;SDS011;41083;52.932;6.674;2023-07-29T05:18:10;3.53;;;1.60;;
55212;SDS011;41083;52.932;6.674;2023-07-29T05:20:36;3.20;;;1.25;;
55212;SDS011;41083;52.932;6.674;2023-07-29T05:23:01;3.00;;;1.42;;
55212;SDS011;41083;52.932;6.674;2023-07-29T05:25:27;3.13;;;1.33;;
55212;SDS011;41083;52.932;6.674;2023-07-29T05:27:52;4.65;;;1.38;;
55212;SDS011;41083;52.932;6.674;2023-07-29T05:30:18;3.95;;;1.25;;
55212;SDS011;41083;52.932;6.674;2023-07-29T05:32:43;3.35;;;1.17;;
55212;SDS011;41083;52.932;6.674;2023-07-29T05:35:09;2.22;;;1.17;;
55212;SDS011;41083;52.932;6.674;2023-07-29T05:37:37;3.05;;;1.20;;
55212;SDS011;41083;52.932;6.674;2023-07-29T05:40:04;3.35;;;1.20;;
55212;SDS011;41083;52.932;6.674;2023-07-29T05:42:31;2.60;;;1.10;;
55212;SDS011;41083;52.932;6.674;2023-07-29T05:44:57;3.97;;;1.20;;
55212;SDS011;41083;52.932;6.674;2023-07-29T05:47:23;4.95;;;1.52;;
55212;SDS011;41083;52.932;6.674;2023-07-29T05:49:48;2.08;;;0.93;;
55212;SDS011;41083;52.932;6.674;2023-07-29T05:52:14;2.63;;;1.13;;
55212;SDS011;41083;52.932;6.674;2023-07-29T05:54:40;2.83;;;1.20;;
55212;SDS011;41083;52.932;6.674;2023-07-29T05:57:07;4.30;;;1.25;;
55212;SDS011;41083;52.932;6.674;2023-07-29T05:59:34;3.58;;;1.20;;
55212;SDS011;41083;52.932;6.674;2023-07-29T06:01:59;4.00;;;1.38;;
55212;SDS011;41083;52.932;6.674;2023-07-29T06:04:25;3.50;;;1.00;;
55212;SDS011;41083;52.932;6.674;2023-07-29T06:06:50;2.47;;;1.30;;
55212;SDS011;41083;52.932;6.674;2023-07-29T06:09:16;2.72;;;1.10;;
55212;SDS011;41083;52.932;6.674;2023-07-29T06:11:42;4.88;;;1.10;;
55212;SDS011;41083;52.932;6.674;2023-07-29T06:14:07;3.17;;;1.15;;
55212;SDS011;41083;52.932;6.674;2023-07-29T06:16:33;3.35;;;1.27;;
55212;SDS011;41083;52.932;6.674;2023-07-29T06:18:58;5.32;;;1.45;;
55212;SDS011;41083;52.932;6.674;2023-07-29T06:21:24;3.03;;;1.23;;
55212;SDS011;41083;52.932;6.674;2023-07-29T06:23:49;3.80;;;1.20;;
55212;SDS011;41083;52.932;6.674;2023-07-29T06:26:15;4.55;;;1.58;;
55212;SDS011;41083;52.932;6.674;2023-07-29T06:28:40;4.47;;;1.90;;
55212;SDS011;41083;52.932;6.674;2023-07-29T06:31:06;6.65;;;1.77;;
55212;SDS011;41083;52.932;6.674;2023-07-29T06:33:31;3.33;;;1.52;;
55212;SDS011;41083;52.932;6.674;2023-07-29T06:35:57;8.68;;;1.35;;
55212;SDS011;41083;52.932;6.674;2023-07-29T06:38:23;5.63;;;1.90;;
55212;SDS011;41083;52.932;6.674;2023-07-29T06:40:48;4.88;;;1.77;;
55212;SDS011;41083;52.932;6.674;2023-07-29T06:43:14;4.57;;;1.73;;
55212;SDS011;41083;52.932;6.674;2023-07-29T06:45:39;3.20;;;1.40;;
55212;SDS011;41083;52.932;6.674;2023-07-29T06:48:05;4.75;;;1.80;;
55212;SDS011;41083;52.932;6.674;2023-07-29T06:50:31;3.28;;;1.30;;
55212;SDS011;41083;52.932;6.674;2023-07-29T06:52:56;4.63;;;1.80;;
55212;SDS011;41083;52.932;6.674;2023-07-29T06:55:22;6.00;;;2.25;;
55212;SDS011;41083;52.932;6.674;2023-07-29T06:57:47;2.95;;;1.50;;
55212;SDS011;41083;52.932;6.674;2023-07-29T07:00:13;5.78;;;2.17;;
55212;SDS011;41083;52.932;6.674;2023-07-29T07:02:39;4.43;;;1.90;;
55212;SDS011;41083;52.932;6.674;2023-07-29T07:05:05;6.82;;;2.05;;
55212;SDS011;41083;52.932;6.674;2023-07-29T07:07:30;5.10;;;2.28;;
55212;SDS011;41083;52.932;6.674;2023-07-29T07:09:56;4.20;;;2.00;;
55212;SDS011;41083;52.932;6.674;2023-07-29T07:12:22;4.93;;;2.47;;
55212;SDS011;41083;52.932;6.674;2023-07-29T07:14:47;5.40;;;2.17;;
55212;SDS011;41083;52.932;6.674;2023-07-29T07:17:13;4.80;;;2.10;;
55212;SDS011;41083;52.932;6.674;2023-07-29T07:19:38;4.30;;;2.40;;
55212;SDS011;41083;52.932;6.674;2023-07-29T07:22:04;5.78;;;2.38;;
55212;SDS011;41083;52.932;6.674;2023-07-29T07:24:30;3.95;;;2.00;;
55212;SDS011;41083;52.932;6.674;2023-07-29T07:26:56;4.72;;;2.30;;
55212;SDS011;41083;52.932;6.674;2023-07-29T07:29:21;5.55;;;2.17;;
55212;SDS011;41083;52.932;6.674;2023-07-29T07:31:51;4.53;;;2.05;;
55212;SDS011;41083;52.932;6.674;2023-07-29T07:34:19;5.95;;;2.75;;
55212;SDS011;41083;52.932;6.674;2023-07-29T07:36:45;7.15;;;2.72;;
55212;SDS011;41083;52.932;6.674;2023-07-29T07:39:10;6.00;;;2.38;;
55212;SDS011;41083;52.932;6.674;2023-07-29T07:41:36;4.95;;;2.63;;
55212;SDS011;41083;52.932;6.674;2023-07-29T07:44:02;5.80;;;2.47;;
55212;SDS011;41083;52.932;6.674;2023-07-29T07:46:28;5.20;;;2.30;;
55212;SDS011;41083;52.932;6.674;2023-07-29T07:48:54;7.28;;;3.05;;
55212;SDS011;41083;52.932;6.674;2023-07-29T07:51:19;4.22;;;2.20;;
55212;SDS011;41083;52.932;6.674;2023-07-29T07:53:45;7.50;;;2.60;;
55212;SDS011;41083;52.932;6.674;2023-07-29T07:56:11;4.97;;;2.95;;
55212;SDS011;41083;52.932;6.674;2023-07-29T07:58:37;6.43;;;3.25;;
55212;SDS011;41083;52.932;6.674;2023-07-29T08:01:03;7.50;;;3.17;;
55212;SDS011;41083;52.932;6.674;2023-07-29T08:03:33;3.78;;;2.30;;
55212;SDS011;41083;52.932;6.674;2023-07-29T08:05:59;4.45;;;3.10;;
55212;SDS011;41083;52.932;6.674;2023-07-29T08:08:25;6.93;;;2.75;;
55212;SDS011;41083;52.932;6.674;2023-07-29T08:10:55;4.43;;;2.35;;
55212;SDS011;41083;52.932;6.674;2023-07-29T08:13:22;4.85;;;2.55;;
55212;SDS011;41083;52.932;6.674;2023-07-29T08:15:49;6.47;;;2.85;;
55212;SDS011;41083;52.932;6.674;2023-07-29T08:18:17;4.50;;;2.53;;
55212;SDS011;41083;52.932;6.674;2023-07-29T08:20:56;7.25;;;3.00;;
55212;SDS011;41083;52.932;6.674;2023-07-29T08:23:23;4.70;;;2.30;;
55212;SDS011;41083;52.932;6.674;2023-07-29T08:25:51;7.28;;;2.63;;
55212;SDS011;41083;52.932;6.674;2023-07-29T08:28:21;4.72;;;2.58;;
55212;SDS011;41083;52.932;6.674;2023-07-29T08:30:48;6.20;;;2.50;;
55212;SDS011;41083;52.932;6.674;2023-07-29T08:33:14;4.68;;;2.13;;
55212;SDS011;41083;52.932;6.674;2023-07-29T08:35:40;5.45;;;2.53;;
55212;SDS011;41083;52.932;6.674;2023-07-29T08:38:05;5.15;;;2.50;;
55212;SDS011;41083;52.932;6.674;2023-07-29T08:40:31;5.05;;;2.67;;
55212;SDS011;41083;52.932;6.674;2023-07-29T08:42:59;5.07;;;2.30;;
55212;SDS011;41083;52.932;6.674;2023-07-29T08:45:30;4.85;;;2.83;;
55212;SDS011;41083;52.932;6.674;2023-07-29T08:47:59;5.22;;;2.25;;
55212;SDS011;41083;52.932;6.674;2023-07-29T08:50:32;3.47;;;1.98;;
55212;SDS011;41083;52.932;6.674;2023-07-29T08:53:00;4.55;;;2.40;;
55212;SDS011;41083;52.932;6.674;2023-07-29T08:55:28;4.50;;;2.78;;
55212;SDS011;41083;52.932;6.674;2023-07-29T08:57:55;6.03;;;2.30;;
55212;SDS011;41083;52.932;6.674;2023-07-29T09:00:23;3.40;;;2.13;;
55212;SDS011;41083;52.932;6.674;2023-07-29T09:02:48;3.45;;;1.65;;
55212;SDS011;41083;52.932;6.674;2023-07-29T09:05:14;5.10;;;2.13;;
55212;SDS011;41083;52.932;6.674;2023-07-29T09:07:40;5.80;;;2.13;;
55212;SDS011;41083;52.932;6.674;2023-07-29T09:10:08;3.67;;;1.90;;
55212;SDS011;41083;52.932;6.674;2023-07-29T09:12:35;5.07;;;1.77;;
55212;SDS011;41083;52.932;6.674;2023-07-29T09:15:01;3.58;;;1.77;;
55212;SDS011;41083;52.932;6.674;2023-07-29T09:17:27;5.60;;;2.15;;
55212;SDS011;41083;52.932;6.674;2023-07-29T09:19:57;3.40;;;1.80;;
55212;SDS011;41083;52.932;6.674;2023-07-29T09:22:23;4.22;;;2.17;;
55212;SDS011;41083;52.932;6.674;2023-07-29T09:24:50;3.75;;;1.60;;
55212;SDS011;41083;52.932;6.674;2023-07-29T09:27:23;4.57;;;2.05;;
55212;SDS011;41083;52.932;6.674;2023-07-29T09:29:50;5.47;;;2.10;;
55212;SDS011;41083;52.932;6.674;2023-07-29T09:32:22;4.20;;;1.90;;
55212;SDS011;41083;52.932;6.674;2023-07-29T09:34:49;3.38;;;1.52;;
55212;SDS011;41083;52.932;6.674;2023-07-29T09:37:16;3.83;;;1.85;;
55212;SDS011;41083;52.932;6.674;2023-07-29T09:39:48;2.65;;;1.40;;
55212;SDS011;41083;52.932;6.674;2023-07-29T09:42:18;3.58;;;1.98;;
55212;SDS011;41083;52.932;6.674;2023-07-29T09:44:44;4.47;;;2.17;;
55212;SDS011;41083;52.932;6.674;2023-07-29T09:47:18;2.83;;;1.70;;
55212;SDS011;41083;52.932;6.674;2023-07-29T09:49:45;3.88;;;1.80;;
55212;SDS011;41083;52.932;6.674;2023-07-29T09:52:11;3.75;;;1.90;;
55212;SDS011;41083;52.932;6.674;2023-07-29T09:54:37;3.45;;;1.90;;
55212;SDS011;41083;52.932;6.674;2023-07-29T09:57:02;2.60;;;1.50;;
55212;SDS011;41083;52.932;6.674;2023-07-29T09:59:33;2.53;;;1.58;;
55212;SDS011;41083;52.932;6.674;2023-07-29T10:01:59;1.88;;;1.20;;
55212;SDS011;41083;52.932;6.674;2023-07-29T10:04:25;2.38;;;1.58;;
55212;SDS011;41083;52.932;6.674;2023-07-29T10:06:52;3.72;;;1.60;;
55212;SDS011;41083;52.932;6.674;2023-07-29T10:09:18;3.33;;;1.38;;
55212;SDS011;41083;52.932;6.674;2023-07-29T10:11:45;3.40;;;1.50;;
55212;SDS011;41083;52.932;6.674;2023-07-29T10:14:11;2.25;;;1.10;;
55212;SDS011;41083;52.932;6.674;2023-07-29T10:16:37;4.82;;;1.00;;
55212;SDS011;41083;52.932;6.674;2023-07-29T10:19:04;2.75;;;1.20;;
55212;SDS011;41083;52.932;6.674;2023-07-29T10:21:32;4.25;;;1.20;;
55212;SDS011;41083;52.932;6.674;2023-07-29T10:23:59;2.10;;;1.20;;
55212;SDS011;41083;52.932;6.674;2023-07-29T10:26:27;3.88;;;1.10;;
55212;SDS011;41083;52.932;6.674;2023-07-29T10:28:56;2.97;;;0.90;;
55212;SDS011;41083;52.932;6.674;2023-07-29T10:31:29;2.65;;;1.15;;
55212;SDS011;41083;52.932;6.674;2023-07-29T10:33:56;1.80;;;1.08;;
55212;SDS011;41083;52.932;6.674;2023-07-29T10:36:22;2.35;;;1.08;;
55212;SDS011;41083;52.932;6.674;2023-07-29T10:38:49;3.88;;;1.00;;
55212;SDS011;41083;52.932;6.674;2023-07-29T10:41:14;2.72;;;0.90;;
55212;SDS011;41083;52.932;6.674;2023-07-29T10:43:40;3.72;;;1.05;;
55212;SDS011;41083;52.932;6.674;2023-07-29T10:46:15;2.47;;;1.27;;
55212;SDS011;41083;52.932;6.674;2023-07-29T10:48:51;3.25;;;1.38;;
55212;SDS011;41083;52.932;6.674;2023-07-29T10:51:25;3.53;;;1.42;;
55212;SDS011;41083;52.932;6.674;2023-07-29T10:53:58;2.22;;;1.20;;
55212;SDS011;41083;52.932;6.674;2023-07-29T10:56:32;1.48;;;0.95;;
55212;SDS011;41083;52.932;6.674;2023-07-29T10:59:00;3.47;;;1.23;;
55212;SDS011;41083;52.932;6.674;2023-07-29T11:01:51;2.03;;;1.25;;
55212;SDS011;41083;52.932;6.674;2023-07-29T11:15:42;4.10;;;1.15;;
55212;SDS011;41083;52.932;6.674;2023-07-29T11:17:50;2.30;;;1.02;;
55212;SDS011;41083;52.932;6.674;2023-07-29T11:20:17;1.83;;;0.82;;
55212;SDS011;41083;52.932;6.674;2023-07-29T11:22:45;2.97;;;0.85;;
55212;SDS011;41083;52.932;6.674;2023-07-29T11:25:11;2.40;;;1.05;;
55212;SDS011;41083;52.932;6.674;2023-07-29T11:27:38;2.22;;;1.00;;
55212;SDS011;41083;52.932;6.674;2023-07-29T11:30:05;2.33;;;1.00;;
55212;SDS011;41083;52.932;6.674;2023-07-29T11:32:33;4.75;;;1.48;;
55212;SDS011;41083;52.932;6.674;2023-07-29T11:35:10;3.55;;;1.48;;
55212;SDS011;41083;52.932;6.674;2023-07-29T11:37:40;3.15;;;1.52;;
55212;SDS011;41083;52.932;6.674;2023-07-29T11:40:07;4.95;;;1.60;;
55212;SDS011;41083;52.932;6.674;2023-07-29T11:42:35;3.40;;;2.35;;
55212;SDS011;41083;52.932;6.674;2023-07-29T11:45:02;4.97;;;2.10;;
55212;SDS011;41083;52.932;6.674;2023-07-29T11:47:29;3.55;;;2.13;;
55212;SDS011;41083;52.932;6.674;2023-07-29T11:49:57;4.13;;;2.25;;
55212;SDS011;41083;52.932;6.674;2023-07-29T11:52:23;5.03;;;2.15;;
55212;SDS011;41083;52.932;6.674;2023-07-29T11:54:49;4.57;;;1.80;;
55212;SDS011;41083;52.932;6.674;2023-07-29T11:57:15;4.93;;;1.95;;
55212;SDS011;41083;52.932;6.674;2023-07-29T11:59:43;3.28;;;1.83;;
55212;SDS011;41083;52.932;6.674;2023-07-29T12:02:11;4.53;;;1.88;;
55212;SDS011;41083;52.932;6.674;2023-07-29T12:04:38;6.43;;;1.95;;
55212;SDS011;41083;52.932;6.674;2023-07-29T12:07:05;3.38;;;1.55;;
55212;SDS011;41083;52.932;6.674;2023-07-29T12:09:31;3.47;;;1.42;;
55212;SDS011;41083;52.932;6.674;2023-07-29T12:11:58;4.70;;;1.55;;
55212;SDS011;41083;52.932;6.674;2023-07-29T12:14:28;5.43;;;1.30;;
55212;SDS011;41083;52.932;6.674;2023-07-29T12:16:54;3.65;;;1.60;;
55212;SDS011;41083;52.932;6.674;2023-07-29T12:19:19;3.15;;;1.25;;
55212;SDS011;41083;52.932;6.674;2023-07-29T12:21:47;4.45;;;1.17;;
55212;SDS011;41083;52.932;6.674;2023-07-29T12:24:13;2.50;;;1.05;;
55212;SDS011;41083;52.932;6.674;2023-07-29T12:26:40;5.15;;;1.60;;
55212;SDS011;41083;52.932;6.674;2023-07-29T12:29:13;2.38;;;1.00;;
55212;SDS011;41083;52.932;6.674;2023-07-29T12:31:39;2.35;;;1.00;;
55212;SDS011;41083;52.932;6.674;2023-07-29T12:34:05;3.28;;;1.30;;
55212;SDS011;41083;52.932;6.674;2023-07-29T12:39:28;2.67;;;1.00;;
55212;SDS011;41083;52.932;6.674;2023-07-29T12:41:56;3.90;;;1.30;;
55212;SDS011;41083;52.932;6.674;2023-07-29T12:44:23;3.22;;;1.23;;
55212;SDS011;41083;52.932;6.674;2023-07-29T12:46:50;2.78;;;1.20;;
55212;SDS011;41083;52.932;6.674;2023-07-29T12:49:16;3.78;;;1.15;;
55212;SDS011;41083;52.932;6.674;2023-07-29T12:51:42;3.67;;;1.67;;
55212;SDS011;41083;52.932;6.674;2023-07-29T12:54:08;5.45;;;1.00;;
55212;SDS011;41083;52.932;6.674;2023-07-29T12:56:34;4.63;;;1.30;;
55212;SDS011;41083;52.932;6.674;2023-07-29T12:59:00;3.63;;;1.17;;
55212;SDS011;41083;52.932;6.674;2023-07-29T13:01:26;2.70;;;1.30;;
55212;SDS011;41083;52.932;6.674;2023-07-29T13:03:53;5.05;;;1.50;;
55212;SDS011;41083;52.932;6.674;2023-07-29T13:06:19;1.58;;;0.90;;
55212;SDS011;41083;52.932;6.674;2023-07-29T13:08:45;4.22;;;1.42;;
55212;SDS011;41083;52.932;6.674;2023-07-29T13:11:11;1.98;;;0.90;;
55212;SDS011;41083;52.932;6.674;2023-07-29T13:13:37;3.70;;;0.80;;
55212;SDS011;41083;52.932;6.674;2023-07-29T13:16:03;2.42;;;1.17;;
55212;SDS011;41083;52.932;6.674;2023-07-29T13:18:29;1.95;;;0.90;;
55212;SDS011;41083;52.932;6.674;2023-07-29T13:20:54;2.13;;;0.85;;
55212;SDS011;41083;52.932;6.674;2023-07-29T13:23:20;2.95;;;0.98;;
55212;SDS011;41083;52.932;6.674;2023-07-29T13:25:46;2.53;;;0.80;;
55212;SDS011;41083;52.932;6.674;2023-07-29T13:28:12;2.67;;;0.60;;
55212;SDS011;41083;52.932;6.674;2023-07-29T13:30:38;2.22;;;0.80;;
55212;SDS011;41083;52.932;6.674;2023-07-29T13:33:07;1.73;;;0.57;;
55212;SDS011;41083;52.932;6.674;2023-07-29T13:35:33;1.60;;;0.43;;
55212;SDS011;41083;52.932;6.674;2023-07-29T13:37:59;1.63;;;0.40;;
55212;SDS011;41083;52.932;6.674;2023-07-29T13:40:25;3.33;;;0.80;;
55212;SDS011;41083;52.932;6.674;2023-07-29T13:42:50;2.33;;;0.80;;
55212;SDS011;41083;52.932;6.674;2023-07-29T13:45:17;3.88;;;0.63;;
55212;SDS011;41083;52.932;6.674;2023-07-29T13:47:43;2.28;;;0.50;;
55212;SDS011;41083;52.932;6.674;2023-07-29T13:50:08;1.23;;;0.60;;
55212;SDS011;41083;52.932;6.674;2023-07-29T13:52:35;1.73;;;0.65;;
55212;SDS011;41083;52.932;6.674;2023-07-29T13:55:01;1.27;;;0.57;;
55212;SDS011;41083;52.932;6.674;2023-07-29T13:57:28;1.80;;;0.60;;
55212;SDS011;41083;52.932;6.674;2023-07-29T13:59:53;2.67;;;0.32;;
55212;SDS011;41083;52.932;6.674;2023-07-29T14:02:19;1.30;;;0.60;;
55212;SDS011;41083;52.932;6.674;2023-07-29T14:04:44;2.88;;;0.82;;
55212;SDS011;41083;52.932;6.674;2023-07-29T14:07:10;1.92;;;0.60;;
55212;SDS011;41083;52.932;6.674;2023-07-29T14:09:35;0.95;;;0.50;;
55212;SDS011;41083;52.932;6.674;2023-07-29T14:12:02;1.20;;;0.47;;
55212;SDS011;41083;52.932;6.674;2023-07-29T14:14:28;3.10;;;0.90;;
55212;SDS011;41083;52.932;6.674;2023-07-29T14:16:53;1.45;;;0.55;;
55212;SDS011;41083;52.932;6.674;2023-07-29T14:19:19;2.88;;;0.73;;
55212;SDS011;41083;52.932;6.674;2023-07-29T14:21:45;2.10;;;0.50;;
55212;SDS011;41083;52.932;6.674;2023-07-29T14:24:10;1.20;;;0.40;;
55212;SDS011;41083;52.932;6.674;2023-07-29T14:26:36;3.22;;;0.73;;
55212;SDS011;41083;52.932;6.674;2023-07-29T14:29:01;1.58;;;0.63;;
55212;SDS011;41083;52.932;6.674;2023-07-29T14:31:27;1.58;;;0.73;;
55212;SDS011;41083;52.932;6.674;2023-07-29T14:33:53;2.83;;;0.60;;
55212;SDS011;41083;52.932;6.674;2023-07-29T14:36:18;0.85;;;0.50;;
55212;SDS011;41083;52.932;6.674;2023-07-29T14:38:44;1.48;;;0.60;;
55212;SDS011;41083;52.932;6.674;2023-07-29T14:41:09;1.42;;;0.65;;
55212;SDS011;41083;52.932;6.674;2023-07-29T14:43:35;1.98;;;0.63;;
55212;SDS011;41083;52.932;6.674;2023-07-29T14:46:01;3.35;;;0.90;;
55212;SDS011;41083;52.932;6.674;2023-07-29T14:48:27;2.42;;;0.80;;
55212;SDS011;41083;52.932;6.674;2023-07-29T14:50:52;2.45;;;1.00;;
55212;SDS011;41083;52.932;6.674;2023-07-29T14:53:18;2.25;;;0.88;;
55212;SDS011;41083;52.932;6.674;2023-07-29T14:55:44;2.85;;;0.70;;
55212;SDS011;41083;52.932;6.674;2023-07-29T14:58:10;3.25;;;0.80;;
55212;SDS011;41083;52.932;6.674;2023-07-29T15:00:35;2.28;;;1.13;;
55212;SDS011;41083;52.932;6.674;2023-07-29T15:03:01;2.03;;;0.90;;
55212;SDS011;41083;52.932;6.674;2023-07-29T15:05:26;1.45;;;0.70;;